createdAt,value
2022-11-26T00:02:25.535Z,99454.69
2022-11-26T00:05:33.686Z,99452.98
2022-11-26T00:08:39.805Z,99459.13
2022-11-26T00:11:46.066Z,99466.56
2022-11-26T00:14:52.520Z,99474.00
2022-11-26T00:17:59.179Z,99475.43
2022-11-26T00:21:05.397Z,99478.88
2022-11-26T00:24:26.064Z,99480.06
2022-11-26T00:27:32.260Z,99474.43
2022-11-26T00:30:38.326Z,99479.55
2022-11-26T00:33:44.529Z,99479.30
2022-11-26T00:36:50.811Z,99483.05
2022-11-26T00:39:55.766Z,99487.15
2022-11-26T00:43:02.454Z,99485.54
2022-11-26T00:46:10.905Z,99483.54
2022-11-26T00:49:17.894Z,99488.14
2022-11-26T00:52:31.648Z,99487.45
2022-11-26T00:55:40.230Z,99492.63
2022-11-26T00:58:46.861Z,99493.17
2022-11-26T01:01:52.998Z,99491.66
2022-11-26T01:04:59.198Z,99489.70
2022-11-26T01:08:20.133Z,99488.98
2022-11-26T01:11:26.406Z,99491.07
2022-11-26T01:14:30.938Z,99488.88
2022-11-26T01:17:37.141Z,99489.16
2022-11-26T01:20:43.573Z,99493.29
2022-11-26T01:23:50.048Z,99499.35
2022-11-26T01:26:56.304Z,99499.39
2022-11-26T01:30:02.491Z,99500.65
2022-11-26T01:33:08.718Z,99506.27
2022-11-26T01:36:24.508Z,99506.55
2022-11-26T01:39:30.624Z,99511.98
2022-11-26T01:42:43.697Z,99511.41
2022-11-26T01:45:49.878Z,99511.73
2022-11-26T01:48:56.335Z,99509.31
2022-11-26T01:52:04.863Z,99512.14
2022-11-26T01:55:16.133Z,99513.11
2022-11-26T01:58:25.992Z,99510.05
2022-11-26T02:01:33.302Z,99510.91
2022-11-26T02:04:42.913Z,99514.48
2022-11-26T02:07:49.779Z,99516.39
2022-11-26T02:10:56.149Z,99519.36
2022-11-26T02:14:02.589Z,99524.58
2022-11-26T02:17:21.033Z,99522.55
2022-11-26T02:20:42.426Z,99520.36
2022-11-26T02:24:19.323Z,99522.65
2022-11-26T02:28:00.462Z,99527.95
2022-11-26T02:31:11.043Z,99530.93
2022-11-26T02:34:23.940Z,99531.54
2022-11-26T02:37:37.012Z,99532.02
2022-11-26T02:40:43.157Z,99533.03
2022-11-26T02:43:49.781Z,99530.46
2022-11-26T02:47:02.451Z,99527.38
2022-11-26T02:50:13.501Z,99525.63
2022-11-26T02:53:22.948Z,99528.88
2022-11-26T02:56:30.469Z,99531.49
2022-11-26T02:59:38.393Z,99531.50
2022-11-26T03:02:48.577Z,99532.64
2022-11-26T03:05:57.479Z,99540.79
2022-11-26T03:09:03.905Z,99538.57
2022-11-26T03:12:10.533Z,99544.08
2022-11-26T03:15:16.849Z,99542.55
2022-11-26T03:18:21.280Z,99541.74
2022-11-26T03:21:27.390Z,99538.38
2022-11-26T03:24:33.624Z,99546.38
2022-11-26T03:27:39.854Z,99548.47
2022-11-26T03:30:46.030Z,99551.80
2022-11-26T03:33:52.248Z,99552.11
2022-11-26T03:36:58.388Z,99553.19
2022-11-26T03:40:04.906Z,99551.98
2022-11-26T03:43:11.025Z,99550.70
2022-11-26T03:46:17.265Z,99550.33
2022-11-26T03:49:21.899Z,99555.27
2022-11-26T03:52:28.065Z,99559.22
2022-11-26T03:55:34.221Z,99561.56
2022-11-26T03:58:40.393Z,99560.93
2022-11-26T04:01:46.588Z,99562.52
2022-11-26T04:04:51.358Z,99565.26
2022-11-26T04:07:57.428Z,99563.17
2022-11-26T04:11:04.010Z,99566.25
2022-11-26T04:14:10.198Z,99566.02
2022-11-26T04:17:16.300Z,99567.46
2022-11-26T04:20:22.588Z,99565.02
2022-11-26T04:23:27.144Z,99563.40
2022-11-26T04:26:33.355Z,99567.30
2022-11-26T04:29:39.563Z,99568.29
2022-11-26T04:32:45.729Z,99570.05
2022-11-26T04:35:52.630Z,99575.42
2022-11-26T04:39:00.133Z,99575.41
2022-11-26T04:42:06.328Z,99576.47
2022-11-26T04:45:14.602Z,99576.23
2022-11-26T04:48:20.957Z,99579.01
2022-11-26T04:51:25.480Z,99581.28
2022-11-26T04:54:31.643Z,99584.16
2022-11-26T04:57:37.821Z,99590.21
2022-11-26T05:00:47.374Z,99594.79
2022-11-26T05:03:56.544Z,99600.98
2022-11-26T05:07:02.776Z,99600.42
2022-11-26T05:10:08.885Z,99599.92
2022-11-26T05:13:14.836Z,99599.08
2022-11-26T05:16:21.225Z,99602.52
2022-11-26T05:19:27.677Z,99602.73
2022-11-26T05:22:33.773Z,99606.68
2022-11-26T05:25:40.033Z,99610.98
2022-11-26T05:28:46.200Z,99610.67
2022-11-26T05:31:52.438Z,99617.98
2022-11-26T05:35:00.021Z,99617.19
2022-11-26T05:38:07.024Z,99615.10
2022-11-26T05:41:13.143Z,99621.30
2022-11-26T05:44:19.315Z,99627.13
2022-11-26T05:47:25.331Z,99630.95
2022-11-26T05:50:31.561Z,99631.64
2022-11-26T05:53:35.998Z,99632.13
2022-11-26T05:56:42.068Z,99635.52
2022-11-26T05:59:48.099Z,99640.15
2022-11-26T06:02:54.232Z,99641.80
2022-11-26T06:06:00.433Z,99642.97
2022-11-26T06:09:07.142Z,99646.52
2022-11-26T06:12:13.297Z,99652.59
2022-11-26T06:15:19.504Z,99655.55
2022-11-26T06:18:24.030Z,99660.37
2022-11-26T06:21:30.085Z,99661.68
2022-11-26T06:24:36.639Z,99664.10
2022-11-26T06:27:43.435Z,99667.11
2022-11-26T06:30:49.684Z,99672.06
2022-11-26T06:33:57.650Z,99675.42
2022-11-26T06:37:04.070Z,99681.69
2022-11-26T06:40:17.135Z,99684.16
2022-11-26T06:43:23.096Z,99685.31
2022-11-26T06:46:29.549Z,99687.80
2022-11-26T06:49:36.008Z,99692.57
2022-11-26T06:52:42.060Z,99691.40
2022-11-26T06:55:48.207Z,99690.64
2022-11-26T06:58:56.441Z,99689.55
2022-11-26T07:02:02.835Z,99693.77
2022-11-26T07:05:09.785Z,99696.51
2022-11-26T07:08:15.960Z,99695.41
2022-11-26T07:11:22.653Z,99696.27
2022-11-26T07:14:28.796Z,99698.79
2022-11-26T07:17:34.901Z,99703.73
2022-11-26T07:20:41.335Z,99704.57
2022-11-26T07:23:47.983Z,99706.70
2022-11-26T07:26:54.660Z,99710.22
2022-11-26T07:30:00.729Z,99710.51
2022-11-26T07:33:06.884Z,99715.34
2022-11-26T07:36:17.908Z,99714.59
2022-11-26T07:39:24.046Z,99719.98
2022-11-26T07:42:33.383Z,99722.11
2022-11-26T07:45:40.548Z,99723.41
2022-11-26T07:48:47.145Z,99723.64
2022-11-26T07:51:53.265Z,99723.86
2022-11-26T07:54:59.524Z,99726.79
2022-11-26T07:58:05.657Z,99723.56
2022-11-26T08:01:14.857Z,99728.86
2022-11-26T08:04:20.939Z,99732.17
2022-11-26T08:07:29.430Z,99734.52
2022-11-26T08:10:35.725Z,99740.20
2022-11-26T08:13:41.901Z,99741.48
2022-11-26T08:16:47.968Z,99743.05
2022-11-26T08:19:54.185Z,99744.73
2022-11-26T08:23:00.369Z,99741.94
2022-11-26T08:26:23.863Z,99738.37
2022-11-26T08:29:33.991Z,99739.65
2022-11-26T08:32:40.201Z,99747.87
2022-11-26T08:36:06.101Z,99750.61
2022-11-26T08:39:14.011Z,99752.90
2022-11-26T08:42:20.249Z,99754.73
2022-11-26T08:45:26.410Z,99760.40
2022-11-26T08:48:33.485Z,99756.54
2022-11-26T08:51:39.671Z,99757.94
2022-11-26T08:54:46.049Z,99764.23
2022-11-26T08:57:52.381Z,99763.05
2022-11-26T09:00:58.874Z,99766.34
2022-11-26T09:04:06.357Z,99764.44
2022-11-26T09:07:12.544Z,99764.71
2022-11-26T09:10:18.804Z,99772.09
2022-11-26T09:13:24.925Z,99772.04
2022-11-26T09:16:31.278Z,99777.58
2022-11-26T09:19:37.406Z,99780.70
2022-11-26T09:22:43.552Z,99781.33
2022-11-26T09:25:52.585Z,99780.00
2022-11-26T09:28:58.713Z,99782.84
2022-11-26T09:35:31.002Z,99780.70
2022-11-26T09:38:37.743Z,99781.63
2022-11-26T09:41:50.202Z,99780.55
2022-11-26T09:45:10.107Z,99781.87
2022-11-26T09:48:21.489Z,99783.98
2022-11-26T09:51:28.617Z,99786.45
2022-11-26T09:54:35.094Z,99785.24
2022-11-26T09:57:45.066Z,99783.54
2022-11-26T10:00:52.899Z,99785.87
2022-11-26T10:03:59.632Z,99783.08
2022-11-26T10:07:16.053Z,99784.68
2022-11-26T10:10:28.757Z,99786.65
2022-11-26T10:13:46.236Z,99791.52
2022-11-26T10:17:15.115Z,99790.48
2022-11-26T10:20:55.906Z,99795.08
2022-11-26T10:24:06.077Z,99794.10
2022-11-26T10:27:18.426Z,99795.15
2022-11-26T10:30:26.513Z,99800.56
2022-11-26T10:33:38.037Z,99800.50
2022-11-26T10:36:46.780Z,99803.09
2022-11-26T10:40:01.950Z,99799.80
2022-11-26T10:43:20.109Z,99799.27
2022-11-26T10:46:36.442Z,99804.17
2022-11-26T10:49:42.880Z,99799.67
2022-11-26T10:52:47.729Z,99799.21
2022-11-26T10:55:55.517Z,99800.96
2022-11-26T10:59:05.248Z,99802.97
2022-11-26T11:02:28.713Z,99805.17
2022-11-26T11:05:36.124Z,99806.92
2022-11-26T11:08:42.495Z,99807.81
2022-11-26T11:11:47.017Z,99807.16
2022-11-26T11:14:53.697Z,99805.71
2022-11-26T11:18:03.442Z,99804.45
2022-11-26T11:21:17.001Z,99801.17
2022-11-26T11:24:27.291Z,99804.06
2022-11-26T11:27:43.656Z,99804.66
2022-11-26T11:30:59.839Z,99803.23
2022-11-26T11:34:15.062Z,99802.95
2022-11-26T11:37:22.621Z,99804.13
2022-11-26T11:40:31.150Z,99805.65
2022-11-26T11:43:39.513Z,99805.40
2022-11-26T11:47:04.035Z,99804.65
2022-11-26T11:50:26.560Z,99808.39
2022-11-26T11:53:40.290Z,99810.17
2022-11-26T11:56:52.669Z,99810.04
2022-11-26T12:00:13.815Z,99811.73
2022-11-26T12:03:44.594Z,99808.64
2022-11-26T12:07:01.806Z,99811.91
2022-11-26T12:10:15.237Z,99815.79
2022-11-26T12:13:24.837Z,99816.67
2022-11-26T12:16:36.584Z,99814.11
2022-11-26T12:19:48.487Z,99812.31
2022-11-26T12:23:00.193Z,99814.59
2022-11-26T12:26:12.694Z,99811.03
2022-11-26T12:29:28.626Z,99812.16
2022-11-26T12:32:41.279Z,99813.44
2022-11-26T12:35:54.134Z,99813.20
2022-11-26T12:39:03.581Z,99812.79
2022-11-26T12:42:18.348Z,99815.38
2022-11-26T12:45:40.766Z,99812.80
2022-11-26T12:48:52.677Z,99812.77
2022-11-26T12:52:10.461Z,99812.48
2022-11-26T12:55:22.172Z,99809.41
2022-11-26T12:58:46.128Z,99813.66
2022-11-26T13:01:52.445Z,99813.91
2022-11-26T13:04:58.299Z,99817.12
2022-11-26T13:08:24.889Z,99823.02
2022-11-26T13:11:41.638Z,99822.89
2022-11-26T13:14:54.357Z,99824.48
2022-11-26T13:18:02.346Z,99821.81
2022-11-26T13:21:23.089Z,99822.21
2022-11-26T13:24:52.113Z,99824.77
2022-11-26T13:28:08.901Z,99823.42
2022-11-26T13:31:33.131Z,99826.84
2022-11-26T13:34:59.273Z,99828.21
2022-11-26T13:38:11.111Z,99828.48
2022-11-26T13:41:29.202Z,99830.09
2022-11-26T13:45:05.736Z,99832.59
2022-11-26T13:48:17.659Z,99834.27
2022-11-26T13:51:29.070Z,99832.34
2022-11-26T13:54:43.378Z,99834.25
2022-11-26T13:57:53.557Z,99834.91
2022-11-26T14:01:19.988Z,99839.30
2022-11-26T14:04:53.034Z,99843.11
2022-11-26T14:08:38.729Z,99842.15
2022-11-26T14:12:00.606Z,99840.95
2022-11-26T14:15:39.724Z,99847.31
2022-11-26T14:19:08.521Z,99852.50
2022-11-26T14:22:31.183Z,99852.15
2022-11-26T14:25:41.587Z,99853.34
2022-11-26T14:28:48.715Z,99856.21
2022-11-26T14:31:56.263Z,99856.89
2022-11-26T14:35:02.533Z,99858.51
2022-11-26T14:38:23.287Z,99858.91
2022-11-26T14:41:29.086Z,99860.31
2022-11-26T14:44:35.424Z,99861.11
2022-11-26T14:47:44.338Z,99865.61
2022-11-26T14:50:50.856Z,99866.79
2022-11-26T14:53:58.136Z,99866.70
2022-11-26T14:57:08.937Z,99866.94
2022-11-26T15:00:27.181Z,99869.34
2022-11-26T15:03:33.853Z,99875.33
2022-11-26T15:06:45.794Z,99873.15
2022-11-26T15:10:03.426Z,99874.84
2022-11-26T15:13:17.970Z,99874.33
2022-11-26T15:16:33.686Z,99874.49
2022-11-26T15:19:42.203Z,99872.95
2022-11-26T15:22:53.109Z,99877.21
2022-11-26T15:26:01.287Z,99887.05
2022-11-26T15:29:31.317Z,99886.06
2022-11-26T15:32:37.482Z,99880.54
2022-11-26T15:35:44.066Z,99884.27
2022-11-26T15:39:08.396Z,99888.83
2022-11-26T15:42:30.601Z,99891.31
2022-11-26T15:45:42.452Z,99891.32
2022-11-26T15:48:52.725Z,99891.30
2022-11-26T15:52:03.704Z,99900.23
2022-11-26T15:55:20.923Z,99894.45
2022-11-26T15:58:31.028Z,99896.25
2022-11-26T16:01:38.681Z,99900.82
2022-11-26T16:04:50.108Z,99903.08
2022-11-26T16:08:04.572Z,99901.45
2022-11-26T16:11:21.542Z,99907.51
2022-11-26T16:14:33.173Z,99912.27
2022-11-26T16:17:40.400Z,99913.56
2022-11-26T16:20:46.993Z,99913.98
2022-11-26T16:23:59.257Z,99914.80
2022-11-26T16:27:07.828Z,99914.83
2022-11-26T16:30:18.041Z,99916.14
2022-11-26T16:33:24.225Z,99915.86
2022-11-26T16:36:35.372Z,99917.79
2022-11-26T16:39:41.483Z,99921.11
2022-11-26T16:42:48.183Z,99921.92
2022-11-26T16:45:56.848Z,99924.73
2022-11-26T16:49:02.979Z,99925.65
2022-11-26T16:52:15.975Z,99928.02
2022-11-26T16:55:23.829Z,99927.13
2022-11-26T16:58:32.906Z,99925.27
2022-11-26T17:01:38.982Z,99929.80
2022-11-26T17:04:45.037Z,99933.02
2022-11-26T17:07:54.095Z,99937.14
2022-11-26T17:11:00.428Z,99939.59
2022-11-26T17:14:04.958Z,99937.66
2022-11-26T17:17:13.421Z,99938.73
2022-11-26T17:20:22.377Z,99941.41
2022-11-26T17:23:29.247Z,99942.33
2022-11-26T17:26:35.361Z,99944.17
2022-11-26T17:29:43.031Z,99944.11
2022-11-26T17:32:49.641Z,99948.92
2022-11-26T17:35:55.854Z,99952.25
2022-11-26T17:39:01.989Z,99954.17
2022-11-26T17:42:08.802Z,99954.02
2022-11-26T17:45:15.708Z,99955.19
2022-11-26T17:48:26.457Z,99953.13
2022-11-26T17:51:32.898Z,99957.23
2022-11-26T17:54:39.169Z,99957.61
2022-11-26T17:57:43.745Z,99961.67
2022-11-26T18:00:49.829Z,99962.03
2022-11-26T18:03:55.869Z,99968.06
2022-11-26T18:07:08.071Z,99967.55
2022-11-26T18:10:16.317Z,99969.86
2022-11-26T18:13:22.353Z,99969.35
2022-11-26T18:16:28.615Z,99969.48
2022-11-26T18:19:33.184Z,99971.89
2022-11-26T18:22:39.293Z,99974.23
2022-11-26T18:25:45.728Z,99976.27
2022-11-26T18:28:51.785Z,99978.31
2022-11-26T18:31:57.944Z,99984.88
2022-11-26T18:35:04.240Z,99985.21
2022-11-26T18:38:09.749Z,99988.52
2022-11-26T18:41:16.274Z,99989.08
2022-11-26T18:44:22.524Z,99994.69
2022-11-26T18:47:28.680Z,100002.86
2022-11-26T18:50:34.775Z,100003.05
2022-11-26T18:53:41.621Z,100004.46
2022-11-26T18:56:47.762Z,100008.14
2022-11-26T18:59:53.985Z,100013.66
2022-11-26T19:03:00.134Z,100015.36
2022-11-26T19:06:10.143Z,100016.48
2022-11-26T19:09:19.223Z,100016.34
2022-11-26T19:12:25.377Z,100020.16
2022-11-26T19:15:31.561Z,100025.27
2022-11-26T19:18:38.017Z,100024.69
2022-11-26T19:21:44.238Z,100024.67
2022-11-26T19:24:50.789Z,100022.95
2022-11-26T19:28:00.967Z,100027.13
2022-11-26T19:31:12.198Z,100032.63
2022-11-26T19:34:18.685Z,100041.00
2022-11-26T19:37:24.749Z,100044.52
2022-11-26T19:40:31.273Z,100047.40
2022-11-26T19:43:40.367Z,100056.58
2022-11-26T19:46:48.316Z,100061.32
2022-11-26T19:49:54.417Z,100065.05
2022-11-26T19:53:00.648Z,100069.89
2022-11-26T19:56:06.327Z,100079.19
2022-11-26T19:59:12.658Z,100082.23
2022-11-26T20:02:17.172Z,100087.98
2022-11-26T20:05:23.358Z,100091.58
2022-11-26T20:08:29.506Z,100094.54
2022-11-26T20:11:34.298Z,100101.97
2022-11-26T20:14:40.445Z,100105.70
2022-11-26T20:17:46.586Z,100109.89
2022-11-26T20:21:01.781Z,100109.52
2022-11-26T20:24:10.691Z,100107.84
2022-11-26T20:27:16.877Z,100104.05
2022-11-26T20:30:24.954Z,100108.94
2022-11-26T20:33:31.006Z,100109.36
2022-11-26T20:36:37.850Z,100104.09
2022-11-26T20:39:44.110Z,100107.31
2022-11-26T20:42:50.321Z,100112.58
2022-11-26T20:46:03.948Z,100110.56
2022-11-26T20:49:11.809Z,100111.49
2022-11-26T20:52:19.728Z,100115.33
2022-11-26T20:55:26.090Z,100117.85
2022-11-26T20:58:30.813Z,100119.16
2022-11-26T21:01:37.202Z,100119.09
2022-11-26T21:04:43.325Z,100119.84
2022-11-26T21:07:50.928Z,100119.96
2022-11-26T21:10:57.094Z,100120.52
2022-11-26T21:14:04.061Z,100120.58
2022-11-26T21:17:10.400Z,100121.54
2022-11-26T21:20:17.227Z,100126.77
2022-11-26T21:23:23.369Z,100132.30
2022-11-26T21:26:29.633Z,100127.96
2022-11-26T21:29:34.089Z,100129.29
2022-11-26T21:32:40.277Z,100126.57
2022-11-26T21:35:46.363Z,100129.61
2022-11-26T21:38:52.668Z,100131.25
2022-11-26T21:41:57.160Z,100129.66
2022-11-26T21:45:03.225Z,100129.21
2022-11-26T21:48:09.765Z,100132.73
2022-11-26T21:51:17.675Z,100130.42
2022-11-26T21:54:23.813Z,100131.61
2022-11-26T21:57:33.568Z,100136.70
2022-11-26T22:00:39.724Z,100139.11
2022-11-26T22:03:48.507Z,100141.20
2022-11-26T22:06:54.614Z,100143.54
2022-11-26T22:09:59.300Z,100148.13
2022-11-26T22:13:05.452Z,100150.08
2022-11-26T22:16:13.327Z,100154.27
2022-11-26T22:19:19.758Z,100157.86
2022-11-26T22:22:24.301Z,100159.70
2022-11-26T22:25:30.413Z,100163.14
2022-11-26T22:28:38.665Z,100162.83
2022-11-26T22:31:45.535Z,100167.36
2022-11-26T22:34:51.610Z,100170.68
2022-11-26T22:37:57.830Z,100171.15
2022-11-26T22:41:05.818Z,100175.27
2022-11-26T22:44:13.266Z,100171.91
2022-11-26T22:47:19.531Z,100176.21
2022-11-26T22:50:25.973Z,100179.42
2022-11-26T22:53:33.417Z,100178.31
2022-11-26T22:56:39.906Z,100178.04
2022-11-26T22:59:45.977Z,100179.31
2022-11-26T23:02:52.184Z,100181.34
2022-11-26T23:05:56.946Z,100183.55
2022-11-26T23:09:04.521Z,100182.69
2022-11-26T23:12:10.965Z,100182.14
2022-11-26T23:15:17.360Z,100182.69
2022-11-26T23:18:21.987Z,100182.09
2022-11-26T23:21:29.933Z,100186.85
2022-11-26T23:24:35.991Z,100188.27
2022-11-26T23:27:42.119Z,100192.93
2022-11-26T23:30:48.218Z,100194.66
2022-11-26T23:33:54.425Z,100190.31
2022-11-26T23:37:00.471Z,100193.84
2022-11-26T23:40:08.133Z,100196.55
2022-11-26T23:43:14.286Z,100198.36
2022-11-26T23:46:22.124Z,100194.83
2022-11-26T23:49:28.405Z,100197.32
2022-11-26T23:52:34.502Z,100198.49
2022-11-26T23:55:40.630Z,100199.15
2022-11-26T23:58:49.106Z,100197.27
